Tiempo atmosférico en la estación meteorológica de Fuentesauco, Zamora (811 m.)



Fecha
DESCASC
Temp. máxima en grados centígrados (hora)
DESCASC
Temp. mínima en grados centígrados (hora)
DESCASC
Temp. media en grados centígrados
DESCASC
Racha de viento máxima en m/sg (hora)
DESCASC
Velocidad máxima media en intervalos de 10 minutos(hora)
DESCASC
Precipitaciones diarias en mm
DESCASC
Precipitaciones de 00:00 a 06:00 en mm
DESCASC
Precipitaciones de 06:00 a 12:00 en mm
DESCASC
Precipitaciones de 12:00 a 18:00 en mm
DESCASC
Precipitaciones de 18:00 a 24:00 en mm
DESCASC
30-12-2019 -- (--) -- (--) -- -- (--) -- (--) -- 0 0.2 -- 0
12-01-2020 -0.8 (16:10) -6.2 (06:00) -3.5 0 (00:10) 0 (00:10) 0 0 0 0 0
02-01-2020 6 (15:40) -5.2 (-00:0) 0.4 2.5 (12:50) 1.94 (22:20) 0.2 0 0.2 0 0
29-12-2019 8.2 (16:40) -1.8 (-00:0) 3.2 2.5 (09:40) 1.67 (09:40) 0 0 0 0 0
08-01-2020 6.3 (17:20) -3.7 (-00:0) 1.3 2.78 (14:50) 1.94 (14:50) 0.2 0 0 0.2 0
31-12-2019 8.5 (16:30) -1.3 (-00:0) 3.6 3.33 (11:40) 1.94 (11:40) 0 0 0 0 0
11-01-2020 1.2 (16:50) -3.3 (-00:0) -1 3.61 (20:50) 2.5 (20:50) 0.2 0 0.2 0 0
07-01-2020 0.9 (16:00) -3.2 (-00:0) -1.2 3.61 (01:40) 2.5 (01:30) 0.2 0.2 0 0 0
06-01-2020 3.1 (14:10) -3.1 (-00:0) 0 3.61 (14:50) 2.78 (14:50) 0.2 0 0.2 0 0
01-01-2020 3 (13:20) -4.8 (-00:0) -0.9 3.61 (14:30) 2.5 (14:30) 0 0 0 0 0
28-12-2019 3.9 (17:40) -2.5 (-00:0) 0.7 3.61 (16:20) 2.5 (16:30) 0.2 0 0.2 0 0
25-12-2019 9.1 (16:20) 3.7 (00:00) 6.4 4.44 (23:30) 3.33 (23:30) 0.4 0.2 0.2 0 0
27-12-2019 2.8 (02:20) -0.9 (-00:0) 0.9 4.72 (12:20) 3.33 (05:20) 0.2 0 0.2 0 0
05-01-2020 1.4 (00:00) -1.1 (-00:0) 0.1 5 (01:50) 3.61 (01:30) 0.2 0.2 0 0 0
26-12-2019 9.5 (04:10) 1.7 (00:00) 5.6 5.56 (03:20) 3.89 (03:20) 0 0 0 0 0
24-12-2019 13.5 (15:20) 5.1 (08:10) 9.3 5.56 (00:10) 4.17 (00:10) 0 0 0 0 0
10-01-2020 6.9 (16:40) -0.4 (00:00) 3.3 7.22 (13:50) 4.44 (13:50) 0 0 0 0 0
04-01-2020 5.8 (16:50) 1 (00:00) 3.4 7.5 (15:00) 5.28 (15:00) 0 0 0 0 0
03-01-2020 8.2 (14:40) 1.1 (00:00) 4.6 7.5 (02:30) 5.28 (02:40) 0 0 0 0 0
13-01-2020 8.7 (16:50) -4.7 (-00:0) 2 8.89 (14:40) 5.83 (13:40) 0.2 0 0.2 0 0
23-12-2019 12.6 (16:00) 3.7 (00:00) 8.2 9.17 (05:40) 6.39 (00:50) 0 0 0 0 0
09-01-2020 11.1 (16:30) 0.7 (00:00) 5.9 10.28 (15:30) 7.5 (15:30) 0 0 0 0 0
17-01-2020 9.6 (16:40) 4.7 (00:00) 7.2 11.39 (12:50) 8.06 (12:40) 1.2 0.2 1 0 0
14-01-2020 8.1 (16:30) -0.9 (-00:0) 3.6 12.5 (23:50) 9.17 (23:50) 0 0 0 0 0
16-01-2020 11.1 (13:40) 7 (00:00) 9.1 16.11 (13:50) 11.39 (13:40) 2.2 0 0 0 2.2
15-01-2020 11.2 (16:20) 6.1 (00:00) 8.6 16.67 (09:40) 11.11 (07:10) 2.8 0 2.8 0 0
22-12-2019 13.1 (14:20) 5.5 (23:59) 9.3 23.06 (14:20) 16.67 (14:20) 0 0 0 0 0
19-12-2019 12 (23:59) 7 (09:20) 9.5 23.61 (21:50) 17.5 (05:10) 31.8 0 14 3.2 14.6
20-12-2019 12.8 (20:20) 6.2 (00:00) 9.5 25.83 (01:00) 18.06 (00:30) 20.4 10 0.6 3.8 6
21-12-2019 14 (11:30) 8.1 (21:40) 11.1 30 (15:40) 20.56 (15:40) 4.8 0.2 3 1 0.6

Gráficas

Temp. máximas Temp. mínimas Temp. medias Precipitaciones Rachas de viento máximas Velocidades máximas media en intervalos de 10 minutos

Datos horarios

Fecha y hora oficial Temperatura (ºC) Velocidad del viento (km/h) Dirección del viento Racha (km/h) Dirección de racha Precipitación (mm) Presión (hPa) Tendencia (hPa) Humedad (%)
2020-01-17 23:00:00 5 0 Calma 8 Oeste 0 -- -- 86
2020-01-17 22:00:00 5.5 3 Sudeste 8 Sudeste 0 -- -- 85
2020-01-17 21:00:00 6 3 Este 5 Este 0 -- -- 82
2020-01-17 20:00:00 6.1 0 Calma 8 Sudoeste 0 -- -- 85
2020-01-17 19:00:00 6.7 4 Sudoeste 7 Oeste 0 -- -- 80
2020-01-17 18:00:00 7.9 6 Oeste 20 Oeste 0 -- -- 70
2020-01-17 17:00:00 9.3 17 Oeste 26 Noroeste 0 -- -- 61
2020-01-17 16:00:00 9.2 14 Oeste 24 Oeste 0 -- -- 62
2020-01-17 15:00:00 8.7 17 Oeste 33 Oeste 0 -- -- 65
2020-01-17 14:00:00 8.5 15 Oeste 29 Oeste 0 -- -- 71
2020-01-17 13:00:00 8.1 19 Oeste 41 Oeste 0 -- -- 72
2020-01-17 12:00:00 7.1 14 Oeste 28 Oeste 0 -- -- 83
2020-01-17 11:00:00 6.7 17 Oeste 28 Oeste 0 -- -- 87
2020-01-17 10:00:00 6.2 18 Oeste 22 Oeste 0 -- -- 91
2020-01-17 09:00:00 6 17 Sudoeste 24 Sudoeste 0 -- -- 93
2020-01-17 08:00:00 5.8 8 Oeste 22 Oeste 1 -- -- 94
2020-01-17 07:00:00 6 15 Sudoeste 28 Sudoeste 0 -- -- 92
2020-01-17 06:00:00 5.7 18 Sudoeste 30 Sudoeste 0 -- -- 92
2020-01-17 05:00:00 5.6 14 Sudoeste 24 Sudoeste 0.2 -- -- 91
2020-01-17 04:00:00 5.7 16 Sudoeste 28 Sudoeste 0 -- -- 90
2020-01-17 03:00:00 5.5 14 Sudoeste 31 Sudoeste 0 -- -- 93
2020-01-17 02:00:00 5.7 16 Sudoeste 29 Sudoeste 0 -- -- 93
2020-01-17 01:00:00 6.3 18 Sudoeste 35 Sudoeste 0 -- -- 92
2020-01-17 00:00:00 7.3 29 Sudoeste 39 Sudoeste 0 -- -- 90
2020-01-16 23:00:00 7 20 Sudoeste 43 Sudoeste 0.4 -- -- 94
2020-01-16 22:00:00 8 25 Sudoeste 45 Sudoeste 0 -- -- 81
2020-01-16 21:00:00 7.8 24 Sudoeste 43 Sudoeste 1.2 -- -- 81
2020-01-16 20:00:00 8.1 34 Sudoeste 45 Sudoeste 0.6 -- -- 77
2020-01-16 19:00:00 8.3 28 Sudoeste 46 Sudoeste 0 -- -- 75
2020-01-16 18:00:00 9.2 31 Sudoeste 49 Sudoeste 0 -- -- 72
2020-01-16 17:00:00 9.6 35 Sudoeste 46 Sudoeste 0 -- -- 69
2020-01-16 16:00:00 9.9 34 Sudoeste 50 Sudoeste 0 -- -- 64
2020-01-16 15:00:00 10.8 31 Sudoeste 48 Sudoeste 0 -- -- 59
2020-01-16 14:00:00 11.1 37 Sudoeste 58 Sudoeste 0 -- -- 63
2020-01-16 13:00:00 10.7 36 Sudoeste 51 Sudoeste 0 -- -- 68
2020-01-16 12:00:00 10.2 39 Sudoeste 55 Sudoeste 0 -- -- 74
2020-01-16 11:00:00 9.7 32 Sudoeste 47 Sudoeste 0 -- -- 82
2020-01-16 10:00:00 8.7 23 Sur 41 Sur 0 -- -- 91
2020-01-16 09:00:00 8.4 28 Sur 37 Sur 0 -- -- 91
2020-01-16 08:00:00 8.3 24 Sur 36 Sur 0 -- -- 91
2020-01-16 07:00:00 7.9 20 Sur 34 Sur 0 -- -- 91
2020-01-16 06:00:00 7.9 22 Sudoeste 40 Sudoeste 0 -- -- 90
2020-01-16 05:00:00 7.8 24 Sudoeste 42 Sudoeste 0 -- -- 90
2020-01-16 04:00:00 8.3 33 Sudoeste 44 Sudoeste 0 -- -- 89
2020-01-16 03:00:00 8.3 22 Sudoeste 34 Sur 0 -- -- 90
2020-01-16 02:00:00 8.1 26 Sudoeste 36 Sudoeste 0 -- -- 90
2020-01-16 01:00:00 8.4 20 Sudoeste 33 Sudoeste 0 -- -- 90
2020-01-16 00:00:00 8.1 18 Sur 27 Sudoeste 0 -- -- 91
2020-01-15 23:00:00 8 13 Sur 21 Sudoeste 0 -- -- 92
2020-01-15 22:00:00 7.9 14 Sur 18 Sur 0 -- -- 92
2020-01-15 21:00:00 7.9 14 Sur 26 Sudoeste 0 -- -- 92
2020-01-15 20:00:00 8.5 15 Sudoeste 27 Sur 0 -- -- 91
2020-01-15 19:00:00 8.4 20 Sur 29 Sudoeste 0 -- -- 91
2020-01-15 18:00:00 9 21 Sudoeste 32 Sudoeste 0 -- -- 88
2020-01-15 17:00:00 10.2 20 Sur 35 Sudoeste 0 -- -- 83
2020-01-15 16:00:00 10.3 22 Sudoeste 31 Sudoeste 0 -- -- 86
2020-01-15 15:00:00 10.5 19 Sudoeste 26 Sudoeste 0 -- -- 84
2020-01-15 14:00:00 8.8 15 Sur 24 Sur 0 -- -- 88
2020-01-15 13:00:00 7.1 7 Sur 12 Sur 0 -- -- 86
2020-01-15 12:00:00 6.3 4 Oeste 25 Oeste 0.8 -- -- 90
2020-01-15 11:00:00 6.5 14 Noroeste 39 Sudoeste 2 -- -- 92
2020-01-15 10:00:00 7 34 Sudoeste 60 Sudoeste 0 -- -- 87
2020-01-15 09:00:00 6.6 33 Sudoeste 44 Sudoeste 0 -- -- 86
2020-01-15 08:00:00 6.7 33 Sudoeste 50 Sur 0 -- -- 84
2020-01-15 07:00:00 6.6 33 Sur 45 Sudoeste 0 -- -- 84
2020-01-15 06:00:00 6.6 32 Sur 49 Sudoeste 0 -- -- 86
2020-01-15 05:00:00 6.4 34 Sudoeste 46 Sudoeste 0 -- -- 84
2020-01-15 04:00:00 6.5 35 Sudoeste 49 Sudoeste 0 -- -- 85
2020-01-15 03:00:00 6.8 31 Sudoeste 44 Sudoeste 0 -- -- 86
2020-01-15 02:00:00 6.7 32 Sudoeste 43 Sudoeste 0 -- -- 85
2020-01-15 01:00:00 6.4 27 Sudoeste 41 Sudoeste 0 -- -- 88
2020-01-15 00:00:00 6.6 31 Sudoeste 45 Sudoeste 0 -- -- 88
2020-01-14 23:00:00 6.1 22 Sur 36 Sudoeste 0 -- -- 90
2020-01-14 22:00:00 5.9 26 Sur 37 Sudoeste 0 -- -- 88
2020-01-14 21:00:00 5.9 27 Sudoeste 38 Sudoeste 0 -- -- 87
2020-01-14 20:00:00 5.9 27 Sudoeste 39 Sudoeste 0 -- -- 85
2020-01-14 19:00:00 5.1 13 Sudoeste 36 Sur 0 -- -- 86
2020-01-14 18:00:00 6.2 28 Sudoeste 40 Sudoeste 0 -- -- 82
2020-01-14 17:00:00 7.7 27 Sudoeste 37 Sudoeste 0 -- -- 76
2020-01-14 16:00:00 7.3 22 Sudoeste 32 Sudoeste 0 -- -- 79
2020-01-14 15:00:00 7.6 20 Sudoeste 30 Sudoeste 0 -- -- 76
2020-01-14 14:00:00 7.3 19 Sudoeste 36 Sudoeste 0 -- -- 76
2020-01-14 13:00:00 7 17 Sudoeste 26 Sudoeste 0 -- -- 80
2020-01-14 12:00:00 5.1 17 Sur 24 Sur 0 -- -- 85
2020-01-14 11:00:00 3.4 15 Sur 22 Sur 0 -- -- 88
2020-01-14 10:00:00 1.7 11 Sudoeste 17 Sur 0 -- -- 91
2020-01-14 09:00:00 1.3 7 Sur 21 Sur 0 -- -- 90
2020-01-14 08:00:00 0.6 9 Sur 19 Sur 0 -- -- 91
2020-01-14 07:00:00 0.7 9 Sudoeste 18 Sudoeste 0 -- -- 93
2020-01-14 06:00:00 -0.4 6 Sudoeste 10 Sudoeste 0 -- -- 94
2020-01-14 05:00:00 -0.4 2 Oeste 12 Sudoeste 0 -- -- 95
2020-01-14 04:00:00 -0.9 5 Sur 7 Sur 0 -- -- 94
2020-01-14 03:00:00 -0.3 6 Sudoeste 10 Sudoeste 0 -- -- 92
2020-01-14 02:00:00 1.1 7 Oeste 25 Sudoeste 0 -- -- 91
2020-01-14 01:00:00 1.2 15 Sudoeste 25 Sudoeste 0 -- -- 89
2020-01-14 00:00:00 2 21 Sudoeste 30 Sudoeste 0 -- -- 86
2020-01-13 23:00:00 1.1 10 Sudoeste 19 Sudoeste 0 -- -- 87
2020-01-13 22:00:00 0.7 7 Noroeste 15 Sudoeste 0 -- -- 84
2020-01-13 21:00:00 0.9 9 Sudoeste 13 Sudoeste 0 -- -- 84
2020-01-13 20:00:00 2.4 9 Sudoeste 14 Sudoeste 0 -- -- 79
2020-01-13 19:00:00 3.4 7 Sudoeste 9 Sudoeste 0 -- -- 78
2020-01-13 18:00:00 7 5 Sudoeste 17 Sudoeste 0 -- -- 69
2020-01-13 17:00:00 8.6 16 Sudoeste 22 Oeste 0 -- -- 59
2020-01-13 16:00:00 8.3 17 Sudoeste 26 Sudoeste 0 -- -- 63
2020-01-13 15:00:00 6.9 15 Sudoeste 32 Sudoeste 0 -- -- 75
2020-01-13 14:00:00 4.8 19 Sudoeste 28 Sudoeste 0 -- -- 96
2020-01-13 13:00:00 2.6 12 Oeste 18 Oeste 0 -- -- 99
2020-01-13 12:00:00 0.2 0 Calma -- -- 0.2 -- -- 100
2020-01-13 11:00:00 -3.3 0 Calma -- -- 0 -- -- 98
2020-01-13 10:00:00 -4 0 Calma -- -- 0 -- -- 98
2020-01-13 09:00:00 -4.7 0 Calma -- -- 0 -- -- 97
2020-01-13 08:00:00 -4.3 0 Calma -- -- 0 -- -- 97
2020-01-13 07:00:00 -4.1 0 Calma -- -- 0 -- -- 98
2020-01-13 06:00:00 -3.8 0 Calma -- -- 0 -- -- 98
2020-01-13 05:00:00 -4 0 Calma -- -- 0 -- -- 97
2020-01-13 04:00:00 -3.8 0 Calma -- -- 0 -- -- 98
2020-01-13 03:00:00 -3.9 0 Calma -- -- -- -- -- 98
2020-01-13 02:00:00 -3.8 0 Calma -- -- 0 -- -- 98
2020-01-13 01:00:00 -3.3 0 Calma -- -- 0 -- -- 98
2020-01-13 00:00:00 -3.1 0 Calma -- -- 0 -- -- 98
2020-01-12 23:00:00 -3.2 0 Calma -- -- 0 -- -- 98
2020-01-12 22:00:00 -3.1 0 Calma -- -- 0 -- -- 98
2020-01-12 21:00:00 -2.1 0 Calma -- -- 0 -- -- 99
2020-01-12 20:00:00 -1.8 0 Calma -- -- 0 -- -- 99
2020-01-12 19:00:00 -1.5 0 Calma -- -- 0 -- -- 99
2020-01-12 18:00:00 -1.2 0 Calma -- -- 0 -- -- 99
2020-01-12 17:00:00 -0.9 0 Calma -- -- 0 -- -- 99
2020-01-12 16:00:00 -1 0 Calma -- -- 0 -- -- 99
2020-01-12 15:00:00 -1.5 0 Calma -- -- 0 -- -- 99
2020-01-12 14:00:00 -2 0 Calma -- -- 0 -- -- 99
2020-01-12 13:00:00 -2.5 0 Calma -- -- 0 -- -- 98
2020-01-12 12:00:00 -3 0 Calma -- -- 0 -- -- 98
2020-01-12 11:00:00 -3.6 0 Calma -- -- 0 -- -- 98
2020-01-12 10:00:00 -4.4 0 Calma -- -- 0 -- -- 97
2020-01-12 09:00:00 -6.1 0 Calma -- -- 0 -- -- 96
2020-01-12 08:00:00 -5.9 0 Calma -- -- 0 -- -- 96
2020-01-12 07:00:00 -5.7 0 Calma -- -- 0 -- -- 96
2020-01-12 06:00:00 -6.2 0 Calma -- -- 0 -- -- 96
2020-01-12 05:00:00 -5.6 0 Calma -- -- 0 -- -- 96
2020-01-12 04:00:00 -5.1 0 Calma -- -- 0 -- -- 97
2020-01-12 03:00:00 -4.4 0 Calma -- -- 0 -- -- 97
2020-01-12 02:00:00 -4 0 Calma -- -- 0 -- -- 98
2020-01-12 01:00:00 -3.3 0 Calma -- -- 0 -- -- 98
2020-01-12 00:00:00 -3.3 0 Calma -- -- 0 -- -- 98
2020-01-11 23:00:00 -2.9 2 Sudeste 9 Sudeste 0 -- -- 98
2020-01-11 22:00:00 -2.3 4 Sudeste 10 Sudeste 0 -- -- 98
2020-01-11 21:00:00 -1.6 7 Sudeste 13 Sudeste 0 -- -- 97
2020-01-11 20:00:00 -0.9 3 Este 6 Sudeste 0 -- -- 97
2020-01-11 19:00:00 0.3 3 Este 6 Nordeste 0 -- -- 96
2020-01-11 18:00:00 0.9 4 Nordeste 8 Este 0 -- -- 95
2020-01-11 17:00:00 1.2 4 Nordeste 9 Nordeste 0 -- -- 95
2020-01-11 16:00:00 0.7 5 Nordeste 9 Nordeste 0 -- -- 96
2020-01-11 15:00:00 0.9 5 Este 11 Este 0 -- -- 98
2020-01-11 14:00:00 0.5 4 Este 6 Este 0 -- -- 98
2020-01-11 13:00:00 0.2 2 Este 6 Este 0 -- -- 98
2020-01-11 12:00:00 -0.2 3 Este 10 Este 0 -- -- 98
2020-01-11 11:00:00 -1 3 Este 5 Nordeste 0.2 -- -- 98
2020-01-11 10:00:00 -1.7 0 Calma 9 Norte 0 -- -- 98
2020-01-11 09:00:00 -2.5 3 Nordeste 5 Norte 0 -- -- 97
2020-01-11 08:00:00 -2.4 0 Calma 2 Norte 0 -- -- 97
2020-01-11 07:00:00 -2.1 0 Calma 3 Norte 0 -- -- 97
2020-01-11 06:00:00 -1.8 0 Calma 3 Norte 0 -- -- 97
2020-01-11 05:00:00 -1.7 0 Calma 4 Norte 0 -- -- 96
2020-01-11 04:00:00 -1.1 0 Calma 3 Sur 0 -- -- 95
2020-01-11 03:00:00 -1.1 0 Calma 6 Sur 0 -- -- 95
2020-01-11 02:00:00 -1 3 Sudoeste 4 Sur 0 -- -- 94
2020-01-11 01:00:00 -0.5 0 Calma 7 Este 0 -- -- 92
2020-01-11 00:00:00 0.1 3 Sudeste 5 Nordeste 0 -- -- 92
2020-01-10 23:00:00 0.7 6 Nordeste 12 Nordeste 0 -- -- 89
2020-01-10 22:00:00 0.9 0 Calma 4 Sudoeste 0 -- -- 91
2020-01-10 21:00:00 0.9 0 Calma 9 Sudoeste 0 -- -- 90
2020-01-10 20:00:00 1.9 0 Calma 4 Noroeste 0 -- -- 88
2020-01-10 19:00:00 3.7 0 Calma 5 Sudeste 0 -- -- 81
2020-01-10 18:00:00 6 4 Sudeste 12 Este 0 -- -- 74
2020-01-10 17:00:00 6.9 7 Nordeste 16 Nordeste 0 -- -- 69
2020-01-10 16:00:00 6.7 8 Nordeste 17 Este 0 -- -- 68
2020-01-10 15:00:00 6.1 10 Nordeste 23 Este 0 -- -- 72
2020-01-10 14:00:00 6 15 Nordeste 26 Nordeste 0 -- -- 72
2020-01-10 13:00:00 4.4 12 Nordeste 19 Norte 0 -- -- 80
2020-01-10 12:00:00 3.3 8 Nordeste 13 Norte 0 -- -- 84
2020-01-10 11:00:00 2.2 5 Nordeste 8 Nordeste 0 -- -- 86
2020-01-10 10:00:00 0.4 2 Noroeste 5 Noroeste 0 -- -- 95
2020-01-10 09:00:00 -0.1 3 Noroeste 6 Oeste 0 -- -- 92
2020-01-10 08:00:00 -0.1 0 Calma 7 Norte 0 -- -- 93
2020-01-10 07:00:00 -0.3 0 Calma 6 Oeste 0 -- -- 92
2020-01-10 06:00:00 0.4 0 Calma 9 Oeste 0 -- -- 91
2020-01-10 05:00:00 0.2 0 Calma 9 Oeste 0 -- -- 93
2020-01-10 04:00:00 1.5 6 Oeste 11 Noroeste 0 -- -- 91
2020-01-10 03:00:00 1.4 2 Sudoeste 8 Sudoeste 0 -- -- 92
2020-01-10 02:00:00 2.1 3 Sudoeste 11 Oeste 0 -- -- 91
2020-01-10 01:00:00 2.8 7 Oeste 13 Oeste 0 -- -- 92
2020-01-10 00:00:00 4.1 10 Oeste 22 Oeste 0 -- -- 91
2020-01-09 23:00:00 5.5 13 Oeste 22 Oeste 0 -- -- 88
2020-01-09 22:00:00 6.2 13 Oeste 23 Oeste 0 -- -- 90
2020-01-09 21:00:00 6.4 15 Oeste 23 Oeste 0 -- -- 90
2020-01-09 20:00:00 7.7 12 Oeste 32 Noroeste 0 -- -- 90
2020-01-09 19:00:00 9.4 25 Noroeste 35 Noroeste 0 -- -- 89
2020-01-09 18:00:00 9.5 16 Sudoeste 26 Sudoeste 0 -- -- 91
2020-01-09 17:00:00 10.2 22 Oeste 37 Oeste 0 -- -- 86
2020-01-09 16:00:00 10.7 24 Sudoeste 37 Sudoeste 0 -- -- 85
2020-01-09 15:00:00 10.1 24 Sudoeste 37 Sudoeste 0 -- -- 89
2020-01-09 14:00:00 7.8 20 Sudoeste 27 Sudoeste 0 -- -- 94
2020-01-09 13:00:00 7.3 15 Sudoeste 26 Sudoeste 0 -- -- 96
2020-01-09 12:00:00 5.4 19 Sudoeste 27 Sudoeste 0 -- -- 96
2020-01-09 11:00:00 4.9 19 Sudoeste 27 Oeste 0 -- -- 87
2020-01-09 10:00:00 3.4 13 Sudoeste 19 Sudoeste 0 -- -- 87
2020-01-09 09:00:00 2.6 5 Sudoeste 14 Sudoeste 0 -- -- 94
2020-01-09 08:00:00 1.5 7 Sudoeste 11 Sudoeste 0 -- -- 91
2020-01-09 07:00:00 1.4 8 Sudoeste 13 Oeste 0 -- -- 91
2020-01-09 06:00:00 1 8 Oeste 11 Oeste 0 -- -- 94
2020-01-09 05:00:00 1.1 0 Calma 10 Sudoeste 0 -- -- 93
2020-01-09 04:00:00 1.3 6 Noroeste 10 Oeste 0 -- -- 90
2020-01-09 03:00:00 2.4 0 Calma 6 Sur 0 -- -- 82
2020-01-09 02:00:00 1.9 0 Calma 5 Sudoeste 0 -- -- 79
2020-01-09 01:00:00 2 2 Sudoeste 5 Sur 0 -- -- 84
2020-01-09 00:00:00 2.5 3 Sudoeste 7 Sudoeste 0 -- -- 89
2020-01-08 23:00:00 2.4 4 Sudoeste 8 Sudoeste 0 -- -- 90
2020-01-08 22:00:00 2 3 Sudoeste 5 Sudoeste 0 -- -- 93
2020-01-08 21:00:00 2.6 2 Sudoeste 4 Sur 0 -- -- 95
2020-01-08 20:00:00 2.9 2 Sudeste 5 Este 0 -- -- 94
2020-01-08 19:00:00 4 5 Este 6 Este 0 -- -- 93
2020-01-08 18:00:00 5.5 4 Nordeste 8 Nordeste 0 -- -- 88
2020-01-08 17:00:00 6.2 4 Norte 10 Norte 0 -- -- 85
2020-01-08 16:00:00 5.1 7 Nordeste 9 Nordeste 0 -- -- 99
2020-01-08 15:00:00 3.9 5 Norte 10 Norte 0 -- -- 100
2020-01-08 14:00:00 2.1 3 Noroeste 6 Norte 0 -- -- 100
2020-01-08 13:00:00 -0.6 3 Norte 6 Norte 0.2 -- -- 100
2020-01-08 12:00:00 -2.2 0 Calma -- -- 0 -- -- 99
2020-01-08 11:00:00 -2.8 0 Calma -- -- 0 -- -- 99
2020-01-08 10:00:00 -3.3 0 Calma -- -- 0 -- -- 99
2020-01-08 09:00:00 -3.6 0 Calma -- -- 0 -- -- 98
2020-01-08 08:00:00 -3.6 0 Calma -- -- 0 -- -- 98
2020-01-08 07:00:00 -3.5 0 Calma -- -- 0 -- -- 98
2020-01-08 06:00:00 -3.4 0 Calma -- -- 0 -- -- 99
2020-01-08 05:00:00 -3.4 0 Calma -- -- 0 -- -- 98
2020-01-08 04:00:00 -3.4 0 Calma -- -- 0 -- -- 98
2020-01-08 03:00:00 -3.4 0 Calma -- -- 0 -- -- 98
2020-01-08 02:00:00 -3.2 0 Calma -- -- 0 -- -- 99
2020-01-08 01:00:00 -2.9 0 Calma 5 Nordeste 0 -- -- 99
2020-01-08 00:00:00 -2.6 2 Nordeste 4 Nordeste 0 -- -- 99
2020-01-07 23:00:00 -2.1 2 Nordeste 4 Nordeste 0 -- -- 99
2020-01-07 22:00:00 -1.2 0 Calma 3 Nordeste 0 -- -- 100
2020-01-07 21:00:00 -0.8 0 Calma 7 Este 0 -- -- 100
2020-01-07 20:00:00 -0.8 4 Este 6 Nordeste 0 -- -- 100
2020-01-07 19:00:00 -0.5 0 Calma 8 Noroeste 0 -- -- 100
2020-01-07 18:00:00 0 0 Calma 3 Norte 0 -- -- 100
2020-01-07 17:00:00 0.3 3 Nordeste 9 Nordeste 0 -- -- 100
2020-01-07 16:00:00 0.9 2 Nordeste 8 Este 0 -- -- 100
2020-01-07 15:00:00 0.2 5 Nordeste 9 Este 0 -- -- 100
2020-01-07 14:00:00 -0.3 4 Nordeste 9 Nordeste 0 -- -- 100
2020-01-07 13:00:00 -0.6 6 Norte 12 Nordeste 0 -- -- 100
2020-01-07 12:00:00 -1.8 0 Calma -- -- 0 -- -- 99
2020-01-07 11:00:00 -2.7 0 Calma -- -- 0 -- -- 99
2020-01-07 10:00:00 -3.1 0 Calma -- -- 0 -- -- 99
2020-01-07 09:00:00 -3 0 Calma -- -- 0 -- -- 99
2020-01-07 08:00:00 -2.8 0 Calma -- -- 0 -- -- 99
2020-01-07 07:00:00 -2.2 0 Calma -- -- 0 -- -- 99
2020-01-07 06:00:00 -1.9 0 Calma -- -- 0 -- -- 99
2020-01-07 05:00:00 -1.8 0 Calma -- -- 0 -- -- 100
2020-01-07 04:00:00 -1.6 0 Calma -- -- 0 -- -- 100
2020-01-07 03:00:00 -1.4 0 Calma -- -- 0 -- -- 100
2020-01-07 02:00:00 -1 0 Calma 13 Nordeste 0 -- -- 100
2020-01-07 01:00:00 -0.6 5 Nordeste 8 Nordeste 0.2 -- -- 100
2020-01-07 00:00:00 -0.3 2 Este 9 Sudeste 0 -- -- 100
2020-01-06 23:00:00 -0.4 3 Este 11 Sudeste 0 -- -- 100
2020-01-06 22:00:00 -0.1 4 Sudeste 10 Nordeste 0 -- -- 100
2020-01-06 21:00:00 0.4 5 Nordeste 9 Nordeste 0 -- -- 100
2020-01-06 20:00:00 0.8 3 Nordeste 6 Nordeste 0 -- -- 100
2020-01-06 19:00:00 1.3 3 Nordeste 6 Nordeste 0 -- -- 100
2020-01-06 18:00:00 1.7 3 Sudeste 10 Norte 0 -- -- 100
2020-01-06 17:00:00 2 2 Noroeste 9 Noroeste 0 -- -- 100
2020-01-06 16:00:00 2 4 Norte 10 Nordeste 0 -- -- 100
2020-01-06 15:00:00 1.9 8 Nordeste 13 Norte 0 -- -- 100
2020-01-06 14:00:00 2.6 3 Nordeste 7 Este 0 -- -- 100
2020-01-06 13:00:00 1 4 Nordeste 9 Nordeste 0 -- -- 100
2020-01-06 12:00:00 -0.9 0 Calma 3 Sudeste 0.2 -- -- 100
2020-01-06 11:00:00 -2 0 Calma -- -- 0 -- -- 99
2020-01-06 10:00:00 -2.1 0 Calma -- -- 0 -- -- 99